WEATHER

Warnervale Skycam

North West View

North West View

South West View

South West View

Mean Sea Level Pressure Analysis (Synoptic Chart)

Synoptic Chart

  • YSSY TAF

    TAF YSSY 162305Z 1700/1806 17018KT 9999 FEW035 FM171000 22008KT 9999 FEW030 FM171600 29006KT CAVOK FM180000 07016KT CAVOK RMK T 22 24 23 21 Q 1019 1018 1017 1018

  • YSSY METAR

    TTF METAR YSSY 170100Z 19017KT 9999 FEW040 22/15 Q1019 RMK RF00.0/000.0 NOSIG

Sydney Rainfall Radar

128 km Sydney Radar

Sydney Rainfall Radar

 

512 km Sydney Radar

Sydney Rainfall Radar 512km

 

Rainfall radar and satellite images obtained from the Bureau of Meteorology. All information provided on this page is for general information and should NOT be used for flight planning.